Time;durP1;ratioP1;P1;durP2;ratioP2;P2;SDS_P1;SDS_P2;PMS_P1;PMS_P2;Temp;Humidity;BMP_temperature;BMP_pressure;BME280_temperature;BME280_humidity;BME280_pressure;Samples;Min_cycle;Max_cycle;Signal;HPM_P1;HPM_P2
2022/01/14 00:02:08;;;;;;;63.17;25.67;;;-0.70;99.90;;;;;;5030384;28;20164;-66
2022/01/14 00:04:37;;;;;;;56.10;24.33;;;-0.60;99.90;;;;;;5029039;28;20579;-67
2022/01/14 00:07:05;;;;;;;58.50;25.17;;;-0.60;99.90;;;;;;5031146;28;20105;-66
2022/01/14 00:09:35;;;;;;;54.88;24.85;;;-0.70;99.90;;;;;;5027431;28;20045;-66
2022/01/14 00:12:10;;;;;;;58.92;24.60;;;-0.70;99.90;;;;;;5030292;28;20045;-66
2022/01/14 00:17:08;;;;;;;56.47;24.42;;;-0.70;99.90;;;;;;5031189;28;20080;-66
2022/01/14 00:19:37;;;;;;;59.28;25.30;;;-0.70;99.90;;;;;;5030651;28;20034;-66
2022/01/14 00:22:10;;;;;;;56.40;25.52;;;-0.70;99.90;;;;;;5034260;28;20065;-66
2022/01/14 00:33:08;;;;;;;62.85;25.15;;;-0.80;99.90;;;;;;5029547;28;20041;-66
2022/01/14 00:35:41;;;;;;;59.38;25.48;;;-0.80;99.90;;;;;;5029366;28;20497;-66
2022/01/14 00:38:10;;;;;;;60.10;25.23;;;-0.80;99.90;;;;;;5033754;28;20075;-66
2022/01/14 00:40:38;;;;;;;64.63;24.88;;;-0.80;99.90;;;;;;5031992;28;20082;-66
2022/01/14 00:43:06;;;;;;;63.55;25.58;;;-0.80;99.90;;;;;;5033947;28;20151;-66
2022/01/14 00:45:34;;;;;;;61.55;26.30;;;-0.80;99.90;;;;;;5036526;28;20111;-65
2022/01/14 00:48:02;;;;;;;60.35;25.10;;;-0.80;99.90;;;;;;5028951;28;20053;-65
2022/01/14 00:50:30;;;;;;;59.40;25.67;;;-0.80;99.90;;;;;;5029390;28;20118;-65
2022/01/14 00:52:57;;;;;;;62.67;25.20;;;-0.80;99.90;;;;;;5027904;28;20052;-66
2022/01/14 00:55:39;;;;;;;60.42;25.60;;;-0.90;99.90;;;;;;5027362;28;20049;-65
2022/01/14 01:00:52;;;;;;;54.03;23.08;;;-0.90;99.90;;;;;;5028188;28;20294;-66
2022/01/14 01:03:20;;;;;;;59.03;24.33;;;-0.90;99.90;;;;;;5028613;28;20151;-66
2022/01/14 01:05:47;;;;;;;57.28;23.73;;;-0.90;99.90;;;;;;5036204;28;20102;-66
2022/01/14 01:08:21;;;;;;;61.63;25.92;;;-0.90;99.90;;;;;;5031753;28;20473;-66
2022/01/14 01:10:49;;;;;;;58.95;24.50;;;-0.90;99.90;;;;;;5018428;28;20038;-66
2022/01/14 01:13:25;;;;;;;61.00;25.02;;;-1.00;99.90;;;;;;5024480;28;20439;-66
2022/01/14 01:15:54;;;;;;;57.75;25.88;;;-0.90;99.90;;;;;;5034727;28;20152;-66
2022/01/14 01:18:22;;;;;;;60.40;24.40;;;-0.90;99.90;;;;;;5033099;28;20041;-66
2022/01/14 01:20:51;;;;;;;58.60;23.80;;;-0.90;99.90;;;;;;5038912;28;20041;-65
2022/01/14 01:23:18;;;;;;;57.83;24.45;;;-0.80;99.90;;;;;;5027630;28;20057;-65
2022/01/14 01:26:10;;;;;;;53.38;23.02;;;-0.80;99.90;;;;;;5039754;28;20045;-66
2022/01/14 01:28:52;;;;;;;57.33;23.83;;;-0.90;99.90;;;;;;5040802;28;20474;-65
2022/01/14 01:31:37;;;;;;;;;;;-0.90;99.90;;;;;;5025323;28;20045;-65
2022/01/14 01:34:10;;;;;;;59.58;25.77;;;-0.90;99.90;;;;;;5037093;28;20795;-65
2022/01/14 01:36:41;;;;;;;55.70;23.00;;;-1.00;99.90;;;;;;5019017;28;20049;-66
2022/01/14 01:39:12;;;;;;;60.17;23.52;;;-1.00;99.90;;;;;;5030689;28;20072;-66
2022/01/14 01:41:42;;;;;;;58.13;23.45;;;-1.10;99.90;;;;;;5036382;28;20037;-65
2022/01/14 01:44:10;;;;;;;53.05;23.73;;;-1.10;99.90;;;;;;5025011;28;20121;-67
2022/01/14 01:46:40;;;;;;;60.30;22.90;;;-1.10;99.90;;;;;;5036757;28;20407;-65
2022/01/14 01:49:09;;;;;;;57.42;24.42;;;-1.10;99.90;;;;;;5032412;28;20396;-66
2022/01/14 01:51:38;;;;;;;61.53;23.98;;;-1.20;99.90;;;;;;5036504;28;20056;-66
2022/01/14 01:54:06;;;;;;;60.78;23.27;;;-1.10;99.90;;;;;;5035671;28;20045;-66
2022/01/14 01:56:33;;;;;;;59.95;24.20;;;-1.10;99.90;;;;;;5040742;28;20103;-66
2022/01/14 01:59:00;;;;;;;59.13;24.25;;;-1.00;99.90;;;;;;5017493;28;20046;-66
2022/01/14 02:01:27;;;;;;;61.55;24.70;;;-1.00;99.90;;;;;;5014191;28;20384;-66
2022/01/14 02:03:56;;;;;;;56.95;22.67;;;-1.10;99.90;;;;;;5018070;28;20053;-66
2022/01/14 02:06:24;;;;;;;55.95;24.65;;;-1.20;99.90;;;;;;5023718;28;20041;-66
2022/01/14 02:08:51;;;;;;;53.10;23.40;;;-1.20;99.90;;;;;;5039365;28;20618;-66
2022/01/14 02:11:19;;;;;;;57.72;24.50;;;-1.20;99.90;;;;;;5033997;28;20041;-66
2022/01/14 02:13:49;;;;;;;56.58;25.20;;;-1.20;99.90;;;;;;5019191;28;20052;-66
2022/01/14 02:16:30;;;;;;;58.13;24.30;;;-1.20;99.90;;;;;;5047501;28;20057;-66
2022/01/14 02:19:13;;;;;;;61.42;23.40;;;-1.30;99.90;;;;;;5035627;28;20410;-66
2022/01/14 02:27:20;;;;;;;53.72;22.55;;;-1.30;99.90;;;;;;5033832;28;20049;-65
2022/01/14 02:29:47;;;;;;;58.30;24.23;;;-1.30;99.90;;;;;;5031770;28;20057;-65
2022/01/14 02:32:15;;;;;;;57.83;24.58;;;-1.30;99.90;;;;;;5044556;28;20464;-65
2022/01/14 02:34:42;;;;;;;59.50;24.48;;;-1.30;99.90;;;;;;5030123;28;20137;-65
2022/01/14 02:37:09;;;;;;;55.05;24.85;;;-1.30;99.90;;;;;;5031327;28;20502;-65
2022/01/14 02:39:38;;;;;;;59.03;24.63;;;-1.30;99.90;;;;;;5020350;28;20519;-65
2022/01/14 02:42:08;;;;;;;58.58;25.27;;;-1.30;99.90;;;;;;5031965;28;20335;-66
2022/01/14 02:44:36;;;;;;;55.60;23.42;;;-1.30;99.90;;;;;;5034981;28;20049;-66
2022/01/14 02:47:05;;;;;;;52.33;22.70;;;-1.30;99.90;;;;;;5038011;28;20048;-66
2022/01/14 02:49:36;;;;;;;54.65;23.48;;;-1.30;99.90;;;;;;5032547;28;20494;-66
2022/01/14 02:52:07;;;;;;;54.05;22.73;;;-1.30;99.90;;;;;;5035779;28;20069;-67
2022/01/14 02:55:02;;;;;;;53.80;23.55;;;-1.30;99.90;;;;;;5038547;28;20072;-67
2022/01/14 02:57:30;;;;;;;55.75;23.50;;;-1.30;99.90;;;;;;5040547;28;20420;-66
2022/01/14 02:59:58;;;;;;;55.63;23.73;;;-1.30;99.90;;;;;;5033704;28;20121;-67
2022/01/14 03:02:28;;;;;;;60.85;23.33;;;-1.30;99.90;;;;;;5032950;28;20484;-67
2022/01/14 03:04:58;;;;;;;48.72;21.02;;;-1.30;99.90;;;;;;5032596;28;20037;-65
2022/01/14 03:07:25;;;;;;;50.00;22.30;;;-1.30;99.90;;;;;;5033483;28;20046;-66
2022/01/14 03:09:53;;;;;;;52.67;23.42;;;-1.30;99.90;;;;;;5033199;28;20048;-67
2022/01/14 03:12:20;;;;;;;53.53;22.52;;;-1.30;99.90;;;;;;5032970;28;20049;-66
2022/01/14 03:14:48;;;;;;;50.53;21.75;;;-1.30;99.90;;;;;;5032412;28;20048;-66
2022/01/14 03:17:16;;;;;;;52.13;22.48;;;-1.30;99.90;;;;;;5029571;28;20041;-67
2022/01/14 03:19:45;;;;;;;55.95;23.38;;;-1.30;99.90;;;;;;5041848;28;20050;-67
2022/01/14 03:22:22;;;;;;;53.15;22.75;;;-1.30;99.90;;;;;;5032724;28;20061;-66
2022/01/14 03:27:17;;;;;;;55.50;22.50;;;-1.30;99.90;;;;;;5032558;28;20044;-66
2022/01/14 03:29:44;;;;;;;50.80;22.88;;;-1.30;99.90;;;;;;5039735;28;20049;-66
2022/01/14 03:32:12;;;;;;;52.38;23.02;;;-1.30;99.90;;;;;;5042193;28;20143;-67
2022/01/14 03:34:39;;;;;;;57.30;24.33;;;-1.30;99.90;;;;;;5043554;28;20041;-66
2022/01/14 03:37:06;;;;;;;55.42;23.27;;;-1.30;99.90;;;;;;5043745;28;20085;-66
2022/01/14 03:39:34;;;;;;;49.88;23.10;;;-1.30;99.90;;;;;;5049229;28;20041;-66
2022/01/14 03:42:02;;;;;;;46.53;22.42;;;-1.30;99.90;;;;;;5043891;28;20069;-66
2022/01/14 03:44:29;;;;;;;49.28;21.27;;;-1.20;99.90;;;;;;5034433;28;20041;-65
2022/01/14 03:46:56;;;;;;;51.75;22.65;;;-1.20;99.90;;;;;;5041067;28;20053;-66
2022/01/14 03:49:24;;;;;;;49.08;21.45;;;-1.20;99.90;;;;;;5029447;28;20042;-65
2022/01/14 03:51:51;;;;;;;50.30;22.13;;;-1.20;99.90;;;;;;5035743;28;20504;-66
2022/01/14 03:54:18;;;;;;;53.75;21.98;;;-1.20;99.90;;;;;;5037951;28;20075;-66
2022/01/14 03:56:45;;;;;;;46.50;20.98;;;-1.20;99.90;;;;;;5017610;28;20037;-65
2022/01/14 03:59:13;;;;;;;52.53;22.63;;;-1.30;99.90;;;;;;5031757;28;20052;-65
2022/01/14 04:01:40;;;;;;;51.17;22.23;;;-1.30;99.90;;;;;;5035045;28;20059;-65
2022/01/14 04:04:07;;;;;;;52.03;21.83;;;-1.30;99.90;;;;;;5040688;28;20054;-66
2022/01/14 04:06:35;;;;;;;48.80;21.80;;;-1.30;99.90;;;;;;5031055;28;20064;-65
2022/01/14 04:09:03;;;;;;;50.55;21.40;;;-1.30;99.90;;;;;;5030294;28;20519;-65
2022/01/14 04:11:33;;;;;;;47.95;20.98;;;-1.30;99.90;;;;;;5035431;28;20804;-66
2022/01/14 04:15:36;;;;;;;46.67;21.35;;;-1.40;99.90;;;;;;5039626;28;20049;-66
2022/01/14 04:16:48;;;;;;;50.70;21.27;;;-1.40;99.90;;;;;;5025044;28;20045;-66
2022/01/14 04:19:16;;;;;;;52.65;22.80;;;-1.40;99.90;;;;;;5032059;28;20180;-66
2022/01/14 04:21:43;;;;;;;46.03;21.45;;;-1.40;99.90;;;;;;5040334;28;20575;-66
2022/01/14 04:24:11;;;;;;;54.30;23.05;;;-1.40;99.90;;;;;;5031325;28;20037;-66
2022/01/14 04:26:38;;;;;;;51.70;23.73;;;-1.40;99.90;;;;;;5036824;28;20049;-66
2022/01/14 04:29:05;;;;;;;54.10;23.23;;;-1.40;99.90;;;;;;5042082;28;20056;-66
2022/01/14 04:31:32;;;;;;;53.92;22.83;;;-1.40;99.90;;;;;;5042999;28;20435;-66
2022/01/14 04:34:00;;;;;;;49.83;21.98;;;-1.40;99.90;;;;;;5045081;28;20586;-66
2022/01/14 04:36:27;;;;;;;42.42;21.23;;;-1.50;99.90;;;;;;5041834;28;20041;-66
2022/01/14 04:38:54;;;;;;;50.20;19.98;;;-1.50;99.90;;;;;;5045397;28;20060;-66
2022/01/14 04:41:21;;;;;;;47.70;20.83;;;-1.50;99.90;;;;;;5045892;28;20063;-66
2022/01/14 04:43:48;;;;;;;49.92;20.77;;;-1.50;99.90;;;;;;5043820;28;20052;-65
2022/01/14 04:46:48;;;;;;;51.38;21.73;;;-1.50;99.90;;;;;;5037008;28;20186;-64
2022/01/14 04:49:12;;;;;;;49.95;21.80;;;-1.50;99.90;;;;;;5026149;28;20598;-66
2022/01/14 04:51:40;;;;;;;45.42;22.70;;;-1.60;99.90;;;;;;5037213;28;20473;-66
2022/01/14 04:54:08;;;;;;;56.83;23.80;;;-1.60;99.90;;;;;;5037828;28;20063;-66
2022/01/14 04:56:36;;;;;;;47.85;22.17;;;-1.60;99.90;;;;;;5041862;28;20128;-66
2022/01/14 04:59:03;;;;;;;50.97;22.55;;;-1.60;99.90;;;;;;5028824;28;20549;-66
2022/01/14 05:01:32;;;;;;;49.97;21.75;;;-1.60;99.90;;;;;;5011464;28;20041;-66
2022/01/14 05:04:00;;;;;;;44.40;19.77;;;-1.60;99.90;;;;;;5028100;28;20037;-65
2022/01/14 05:06:29;;;;;;;45.00;20.75;;;-1.60;99.90;;;;;;5042675;28;20357;-66
2022/01/14 05:08:56;;;;;;;52.45;22.02;;;-1.60;99.90;;;;;;5036346;28;20045;-66
2022/01/14 05:11:25;;;;;;;56.10;24.75;;;-1.60;99.90;;;;;;5033185;28;20045;-66
2022/01/14 05:13:52;;;;;;;45.78;22.15;;;-1.60;99.90;;;;;;5035263;28;20087;-66
2022/01/14 05:16:19;;;;;;;50.65;22.27;;;-1.60;99.90;;;;;;5035717;28;20049;-66
2022/01/14 05:18:46;;;;;;;45.97;20.38;;;-1.60;99.90;;;;;;5047244;28;20064;-65
2022/01/14 05:21:14;;;;;;;42.67;19.15;;;-1.60;99.90;;;;;;5019814;28;20038;-66
2022/01/14 05:23:42;;;;;;;42.45;19.85;;;-1.60;99.90;;;;;;5023996;28;20041;-66
2022/01/14 05:26:11;;;;;;;44.92;20.48;;;-1.60;99.90;;;;;;5036941;28;20045;-66
2022/01/14 05:28:38;;;;;;;53.88;24.00;;;-1.60;99.90;;;;;;5034559;28;20051;-66
2022/01/14 05:31:07;;;;;;;53.10;23.27;;;-1.60;99.90;;;;;;5033306;28;20044;-66
2022/01/14 05:33:34;;;;;;;43.17;21.20;;;-1.60;99.90;;;;;;5025507;28;20045;-66
2022/01/14 05:36:01;;;;;;;46.72;20.73;;;-1.60;99.90;;;;;;5027645;28;20045;-65
2022/01/14 05:38:29;;;;;;;47.13;20.23;;;-1.60;99.90;;;;;;5026463;28;20056;-65
2022/01/14 05:40:56;;;;;;;47.38;21.13;;;-1.60;99.90;;;;;;5029767;28;20049;-65
2022/01/14 05:43:23;;;;;;;44.80;22.15;;;-1.60;99.90;;;;;;5035260;28;20053;-65
2022/01/14 05:45:50;;;;;;;45.22;20.85;;;-1.60;99.90;;;;;;5026873;28;20045;-65
2022/01/14 05:48:18;;;;;;;43.45;19.75;;;-1.50;99.90;;;;;;5025227;28;20052;-65
2022/01/14 05:50:45;;;;;;;44.05;19.67;;;-1.50;99.90;;;;;;5032866;28;20138;-65
2022/01/14 05:53:12;;;;;;;45.08;20.60;;;-1.50;99.90;;;;;;5040238;28;20041;-66
2022/01/14 05:55:39;;;;;;;45.42;19.95;;;-1.50;99.90;;;;;;5035818;28;20535;-65
2022/01/14 05:58:07;;;;;;;49.08;21.13;;;-1.50;99.90;;;;;;5033116;28;20590;-66
2022/01/14 06:00:34;;;;;;;49.38;21.48;;;-1.50;99.90;;;;;;5047472;28;20033;-66
2022/01/14 06:03:02;;;;;;;49.33;21.65;;;-1.50;99.90;;;;;;5047237;28;20411;-65
2022/01/14 06:05:33;;;;;;;49.53;22.60;;;-1.50;99.90;;;;;;5032246;28;20408;-65
2022/01/14 06:08:00;;;;;;;48.60;22.63;;;-1.50;99.90;;;;;;5017336;28;20320;-65
2022/01/14 06:10:28;;;;;;;44.28;20.88;;;-1.50;99.90;;;;;;5031783;28;20033;-65
2022/01/14 06:12:55;;;;;;;48.15;21.42;;;-1.50;99.90;;;;;;5028968;28;20046;-66
2022/01/14 06:15:22;;;;;;;46.83;21.50;;;-1.50;99.90;;;;;;5032673;28;20033;-66
2022/01/14 06:17:50;;;;;;;49.10;22.05;;;-1.60;99.90;;;;;;5034519;28;20396;-66
2022/01/14 06:20:20;;;;;;;56.22;23.83;;;-1.60;99.90;;;;;;5033912;28;20034;-65
2022/01/14 06:22:47;;;;;;;51.85;23.23;;;-1.60;99.90;;;;;;5032760;28;20037;-66
2022/01/14 06:25:14;;;;;;;49.05;22.85;;;-1.70;99.90;;;;;;5031399;28;20128;-66
2022/01/14 06:27:42;;;;;;;51.33;23.10;;;-1.70;99.90;;;;;;5031090;28;20046;-65
2022/01/14 06:30:10;;;;;;;48.15;22.52;;;-1.70;99.90;;;;;;5031828;28;20057;-65
2022/01/14 06:32:41;;;;;;;49.42;22.05;;;-1.80;99.90;;;;;;5043688;28;20041;-66
2022/01/14 06:35:10;;;;;;;49.60;23.60;;;-1.80;99.90;;;;;;5031030;28;20546;-66
2022/01/14 06:37:38;;;;;;;49.45;22.45;;;-1.80;99.90;;;;;;5017253;28;20045;-66
2022/01/14 06:40:07;;;;;;;44.45;20.67;;;-1.80;99.90;;;;;;5030142;28;20069;-67
2022/01/14 06:42:41;;;;;;;51.42;23.35;;;-1.80;99.90;;;;;;5035928;28;20087;-66
2022/01/14 06:45:09;;;;;;;45.13;21.02;;;-1.90;99.90;;;;;;5030357;28;20057;-66
2022/01/14 06:47:37;;;;;;;49.05;21.30;;;-1.90;99.90;;;;;;5031855;28;20041;-66
2022/01/14 06:50:04;;;;;;;47.15;21.15;;;-2.00;99.90;;;;;;5027687;28;20388;-66
2022/01/14 06:52:31;;;;;;;51.67;22.42;;;-1.90;99.90;;;;;;5032128;28;20041;-67
2022/01/14 06:54:59;;;;;;;55.97;23.52;;;-1.90;99.90;;;;;;5033866;28;20132;-66
2022/01/14 06:57:26;;;;;;;49.88;21.63;;;-1.80;99.90;;;;;;5030383;28;20393;-66
2022/01/14 06:59:53;;;;;;;43.53;21.55;;;-1.80;99.90;;;;;;5029713;28;20567;-65
2022/01/14 07:02:20;;;;;;;47.35;21.25;;;-1.80;99.90;;;;;;5037396;28;20483;-65
2022/01/14 07:04:48;;;;;;;55.00;23.52;;;-1.80;99.90;;;;;;5030094;28;20115;-64
2022/01/14 07:07:16;;;;;;;47.35;21.45;;;-1.80;99.90;;;;;;5028940;28;20072;-65
2022/01/14 07:09:58;;;;;;;48.63;21.63;;;-1.80;99.90;;;;;;5030995;28;20041;-66
2022/01/14 07:12:28;;;;;;;47.30;21.23;;;-1.70;99.90;;;;;;5033249;28;20041;-66
2022/01/14 07:14:59;;;;;;;45.47;21.05;;;-1.70;99.90;;;;;;5039112;28;20053;-65
2022/01/14 07:17:27;;;;;;;54.30;24.33;;;-1.70;99.90;;;;;;5026432;28;20079;-64
2022/01/14 07:19:58;;;;;;;53.38;22.70;;;-1.70;99.90;;;;;;5027884;28;20111;-65
2022/01/14 07:22:25;;;;;;;49.15;21.90;;;-1.70;99.90;;;;;;5038346;28;20041;-66
2022/01/14 07:24:52;;;;;;;48.03;21.42;;;-1.60;99.90;;;;;;5030360;28;20041;-66
2022/01/14 07:27:20;;;;;;;50.95;23.10;;;-1.60;99.90;;;;;;5031319;28;20140;-66
2022/01/14 07:29:47;;;;;;;47.75;21.52;;;-1.50;99.90;;;;;;5013065;28;20046;-66
2022/01/14 07:32:14;;;;;;;45.72;22.17;;;-1.50;99.90;;;;;;5036652;28;20484;-66
2022/01/14 07:34:42;;;;;;;47.13;21.33;;;-1.40;99.90;;;;;;5035614;28;20056;-66
2022/01/14 07:37:09;;;;;;;48.03;21.98;;;-1.40;99.90;;;;;;5032422;28;20052;-66
2022/01/14 07:39:37;;;;;;;43.58;20.70;;;-1.30;99.90;;;;;;5038315;28;20472;-67
2022/01/14 07:42:05;;;;;;;46.42;21.13;;;-1.30;99.90;;;;;;5035456;28;20037;-66
2022/01/14 07:44:34;;;;;;;49.40;22.02;;;-1.30;99.90;;;;;;5019388;28;20472;-66
2022/01/14 07:47:01;;;;;;;53.28;24.00;;;-1.20;99.90;;;;;;5029928;28;20049;-66
2022/01/14 07:49:28;;;;;;;49.42;21.77;;;-1.10;99.90;;;;;;5027226;28;20052;-66
2022/01/14 07:51:56;;;;;;;50.58;22.38;;;-1.00;99.90;;;;;;5035616;28;20755;-66
2022/01/14 07:54:24;;;;;;;49.95;22.13;;;-1.00;99.90;;;;;;5035021;28;20040;-65
2022/01/14 07:56:53;;;;;;;49.33;22.60;;;-1.00;99.90;;;;;;5030016;28;20060;-66
2022/01/14 07:59:23;;;;;;;44.53;22.10;;;-0.90;99.90;;;;;;5030965;28;20048;-66
2022/01/14 08:01:54;;;;;;;51.25;22.90;;;-0.90;99.90;;;;;;5031296;28;20479;-66
2022/01/14 08:04:22;;;;;;;46.97;22.02;;;-0.90;99.90;;;;;;5030583;28;20496;-67
2022/01/14 08:06:52;;;;;;;47.45;21.85;;;-0.80;99.90;;;;;;5027675;28;20558;-66
2022/01/14 08:09:20;;;;;;;41.53;20.55;;;-0.70;99.90;;;;;;5029003;28;20076;-66
2022/01/14 08:11:48;;;;;;;46.25;23.00;;;-0.70;99.90;;;;;;5027596;28;20052;-66
2022/01/14 08:14:15;;;;;;;47.17;21.65;;;-0.70;99.90;;;;;;5029035;28;20050;-67
2022/01/14 08:16:42;;;;;;;48.35;21.48;;;-0.70;99.90;;;;;;5023274;28;20080;-66
2022/01/14 08:19:10;;;;;;;51.47;22.38;;;-0.70;99.90;;;;;;5026667;28;20129;-66
2022/01/14 08:21:37;;;;;;;47.65;22.13;;;-0.60;99.90;;;;;;5018998;28;20038;-66
2022/01/14 08:24:05;;;;;;;47.47;22.17;;;-0.50;99.90;;;;;;5023518;28;20045;-66
2022/01/14 08:26:32;;;;;;;43.42;20.77;;;-0.50;99.90;;;;;;5024571;28;20045;-66
2022/01/14 08:28:59;;;;;;;47.67;22.23;;;-0.50;99.90;;;;;;5029657;28;20044;-66
2022/01/14 08:31:27;;;;;;;54.50;23.75;;;-0.40;99.90;;;;;;5023560;28;20077;-66
2022/01/14 08:33:54;;;;;;;46.20;22.73;;;-0.40;99.90;;;;;;5018778;28;20504;-66
2022/01/14 08:36:23;;;;;;;47.33;22.50;;;-0.40;99.90;;;;;;5030413;28;20072;-67
2022/01/14 08:38:53;;;;;;;45.05;20.85;;;-0.30;99.90;;;;;;5035977;28;20390;-66
2022/01/14 08:41:21;;;;;;;42.38;19.95;;;-0.30;99.90;;;;;;5029223;28;20068;-65
2022/01/14 08:43:49;;;;;;;43.58;20.70;;;-0.20;99.90;;;;;;5028694;28;20060;-65
2022/01/14 08:46:24;;;;;;;51.67;22.67;;;-0.20;99.90;;;;;;5031551;28;20076;-66
2022/01/14 08:48:51;;;;;;;48.33;20.77;;;-0.10;99.90;;;;;;5033884;28;20664;-65
2022/01/14 08:51:19;;;;;;;42.95;20.10;;;-0.10;99.90;;;;;;5026567;28;20088;-65
2022/01/14 08:53:46;;;;;;;44.63;21.38;;;-0.10;99.90;;;;;;5025217;28;20041;-65
2022/01/14 08:56:13;;;;;;;44.92;20.42;;;0.00;99.90;;;;;;5040441;28;20052;-65
2022/01/14 08:58:40;;;;;;;47.47;21.63;;;0.10;99.90;;;;;;5029842;28;20618;-65
2022/01/14 09:01:08;;;;;;;46.03;21.00;;;0.10;99.90;;;;;;5034019;28;20065;-66
2022/01/14 09:03:36;;;;;;;47.05;22.15;;;0.20;99.90;;;;;;5027464;28;20064;-65
2022/01/14 09:06:04;;;;;;;44.78;21.58;;;0.30;99.90;;;;;;5017557;28;20199;-64
2022/01/14 09:08:31;;;;;;;43.50;22.02;;;0.30;99.90;;;;;;5030057;28;20075;-65
2022/01/14 09:10:59;;;;;;;46.20;22.20;;;0.30;99.90;;;;;;5033482;28;20051;-66
2022/01/14 09:13:27;;;;;;;48.83;22.85;;;0.50;99.90;;;;;;5038505;28;20175;-65
2022/01/14 09:15:56;;;;;;;48.08;22.80;;;0.60;99.90;;;;;;5040602;28;20041;-67
2022/01/14 09:18:23;;;;;;;41.33;20.63;;;0.70;99.90;;;;;;5040454;28;20041;-66
2022/01/14 09:20:51;;;;;;;45.25;21.65;;;0.80;99.90;;;;;;5027416;28;20041;-65
2022/01/14 09:23:24;;;;;;;48.28;22.67;;;0.90;99.90;;;;;;5035380;28;20049;-67
2022/01/14 09:25:52;;;;;;;49.22;22.60;;;0.90;99.90;;;;;;5023302;28;20542;-66
2022/01/14 09:28:20;;;;;;;43.97;22.67;;;1.00;99.90;;;;;;5036040;28;20060;-66
2022/01/14 09:30:48;;;;;;;50.10;22.65;;;1.20;99.90;;;;;;5047422;28;20400;-66
2022/01/14 09:33:17;;;;;;;48.53;22.50;;;1.30;99.90;;;;;;5028436;28;20096;-67
2022/01/14 09:35:46;;;;;;;51.05;23.17;;;1.40;99.90;;;;;;5030228;28;20037;-66
2022/01/14 09:38:14;;;;;;;46.78;22.15;;;1.50;99.90;;;;;;5023209;28;20095;-66
2022/01/14 09:40:43;;;;;;;50.63;23.60;;;1.70;99.90;;;;;;5042075;28;20053;-66
2022/01/14 09:43:14;;;;;;;43.00;21.45;;;1.80;99.90;;;;;;5036248;28;20500;-65
2022/01/14 09:46:05;;;;;;;40.38;20.02;;;1.90;99.90;;;;;;5045388;28;20049;-66
2022/01/14 09:48:33;;;;;;;42.10;20.65;;;2.10;99.90;;;;;;5043141;28;20496;-66
2022/01/14 09:51:01;;;;;;;42.95;20.90;;;2.20;99.90;;;;;;5044801;28;20393;-66
2022/01/14 09:53:30;;;;;;;41.55;20.75;;;2.30;99.90;;;;;;5043901;28;20049;-66
2022/01/14 09:55:58;;;;;;;41.08;20.58;;;2.40;99.90;;;;;;5047645;28;20045;-66
2022/01/14 09:58:27;;;;;;;47.17;21.15;;;2.50;99.90;;;;;;5027575;28;20038;-65
2022/01/14 10:01:13;;;;;;;42.15;19.58;;;2.60;99.90;;;;;;5024197;28;20053;-65
2022/01/14 10:03:49;;;;;;;41.55;21.67;;;2.70;99.90;;;;;;5031935;28;20076;-66
2022/01/14 10:06:56;;;;;;;39.97;19.13;;;2.80;99.90;;;;;;5042202;28;20041;-65
2022/01/14 10:09:35;;;;;;;42.72;21.08;;;3.00;99.90;;;;;;5022374;28;20045;-67
2022/01/14 10:12:06;;;;;;;43.40;20.50;;;3.00;99.90;;;;;;5027108;28;20077;-67
2022/01/14 10:14:40;;;;;;;42.13;20.55;;;3.10;99.90;;;;;;5035525;28;20148;-66
2022/01/14 10:17:11;;;;;;;38.60;19.52;;;3.20;99.90;;;;;;5022634;28;20060;-66
2022/01/14 10:19:43;;;;;;;36.38;19.10;;;3.30;99.90;;;;;;5031544;28;20061;-65
2022/01/14 10:22:22;;;;;;;37.50;19.33;;;3.40;99.90;;;;;;5042142;28;20038;-66
2022/01/14 10:25:02;;;;;;;37.25;18.05;;;3.50;99.90;;;;;;5030654;28;20033;-67
2022/01/14 10:27:38;;;;;;;37.17;19.27;;;3.70;99.90;;;;;;5038676;28;20041;-67
2022/01/14 10:30:15;;;;;;;34.30;18.13;;;3.70;99.90;;;;;;5041450;28;20045;-65
2022/01/14 10:32:58;;;;;;;34.58;17.98;;;3.80;99.90;;;;;;5035846;28;20041;-67
2022/01/14 10:35:33;;;;;;;38.17;18.42;;;4.00;99.90;;;;;;5044322;28;20086;-67
2022/01/14 10:38:04;;;;;;;36.00;18.45;;;4.10;99.90;;;;;;5036009;28;20052;-67
2022/01/14 10:40:37;;;;;;;39.55;19.48;;;4.20;99.90;;;;;;5049087;28;20134;-66
2022/01/14 10:43:05;;;;;;;;;;;4.30;99.90;;;;;;5048976;28;20045;-67
2022/01/14 10:45:52;;;;;;;37.35;18.55;;;4.50;99.90;;;;;;5049240;28;19978;-68
2022/01/14 10:48:32;;;;;;;38.28;18.60;;;4.70;99.90;;;;;;5030864;28;20064;-67
2022/01/14 10:51:06;;;;;;;38.67;19.40;;;5.20;99.90;;;;;;5043499;28;20076;-67
2022/01/14 10:53:39;;;;;;;33.58;17.33;;;7.20;99.90;;;;;;5036681;28;20404;-68
2022/01/14 10:56:10;;;;;;;33.67;17.75;;;8.80;99.90;;;;;;5031960;28;20053;-67
2022/01/14 10:58:40;;;;;;;31.95;17.50;;;9.10;99.90;;;;;;5036224;28;20049;-68
2022/01/14 11:01:15;;;;;;;32.88;16.95;;;9.10;99.90;;;;;;5036167;28;20060;-68
2022/01/14 11:03:45;;;;;;;29.92;17.13;;;8.90;99.90;;;;;;5020026;28;20030;-67
2022/01/14 11:06:22;;;;;;;32.20;17.65;;;9.20;99.90;;;;;;5032301;28;20056;-67
2022/01/14 11:09:03;;;;;;;30.90;17.77;;;10.00;99.90;;;;;;5035899;28;20496;-67
2022/01/14 11:11:35;;;;;;;33.67;18.55;;;11.00;99.90;;;;;;5034882;28;20080;-67
2022/01/14 11:14:04;;;;;;;31.95;18.75;;;11.80;99.90;;;;;;5038975;28;20045;-67
2022/01/14 11:16:32;;;;;;;30.25;17.15;;;12.30;99.90;;;;;;5035176;28;20040;-68
2022/01/14 11:19:02;;;;;;;47.85;27.25;;;12.70;99.90;;;;;;5031840;28;20444;-68
2022/01/14 11:24:30;;;;;;;29.63;16.60;;;13.60;99.90;;;;;;5028367;28;20530;-67
2022/01/14 11:27:17;;;;;;;29.92;16.95;;;14.00;99.90;;;;;;5030913;28;20048;-67
2022/01/14 11:29:48;;;;;;;28.45;16.35;;;14.20;99.90;;;;;;5039196;28;20037;-68
2022/01/14 11:32:15;;;;;;;30.23;17.02;;;14.10;99.90;;;;;;5030999;28;20037;-68
2022/01/14 11:34:47;;;;;;;30.48;17.80;;;13.80;99.90;;;;;;5038071;28;20519;-68
2022/01/14 11:37:17;;;;;;;30.55;17.83;;;14.30;99.90;;;;;;5042876;28;20123;-68
2022/01/14 11:40:03;;;;;;;28.95;17.20;;;14.50;99.90;;;;;;5030217;28;20127;-68
2022/01/14 11:42:59;;;;;;;28.92;16.98;;;14.70;99.90;;;;;;5034259;28;20152;-68
2022/01/14 11:45:39;;;;;;;29.17;17.10;;;14.50;99.90;;;;;;5028123;28;20038;-68
2022/01/14 11:48:07;;;;;;;30.50;17.10;;;14.50;99.90;;;;;;5030806;28;20794;-67
2022/01/14 11:50:37;;;;;;;27.88;16.25;;;15.00;99.90;;;;;;5035250;28;20416;-69
2022/01/14 11:53:05;;;;;;;30.37;15.80;;;15.50;99.90;;;;;;5030139;28;20045;-68
2022/01/14 11:55:32;;;;;;;27.25;17.05;;;16.00;99.90;;;;;;5033670;28;20415;-68
2022/01/14 11:58:10;;;;;;;27.33;16.48;;;16.30;99.90;;;;;;5031172;28;20518;-67
2022/01/14 12:00:41;;;;;;;26.92;16.95;;;16.60;99.90;;;;;;5021979;28;20459;-69
2022/01/14 12:03:14;;;;;;;25.63;15.57;;;16.50;99.90;;;;;;5040141;28;20041;-68
2022/01/14 12:05:54;;;;;;;26.42;15.90;;;16.50;99.90;;;;;;5039848;28;20041;-68
2022/01/14 12:08:22;;;;;;;26.73;16.60;;;16.50;99.90;;;;;;5022496;28;20068;-69
2022/01/14 12:10:59;;;;;;;24.40;15.75;;;15.70;99.90;;;;;;5044272;28;20381;-69
2022/01/14 12:16:03;;;;;;;27.20;16.38;;;17.10;99.90;;;;;;5024410;28;20140;-67
2022/01/14 12:18:49;;;;;;;23.63;15.18;;;17.20;99.90;;;;;;5027656;28;20045;-68
2022/01/14 12:21:16;;;;;;;26.38;15.40;;;17.20;99.90;;;;;;5018076;28;20072;-68
2022/01/14 12:23:44;;;;;;;25.83;16.10;;;17.60;99.90;;;;;;5028645;28;20702;-68
2022/01/14 12:26:14;;;;;;;24.92;15.50;;;17.30;99.90;;;;;;5029533;28;20152;-69
2022/01/14 12:28:43;;;;;;;27.50;16.20;;;17.50;99.90;;;;;;5027235;28;20585;-68
2022/01/14 12:31:11;;;;;;;24.48;15.73;;;16.70;99.90;;;;;;5029648;28;20057;-69
2022/01/14 12:33:45;;;;;;;25.45;16.15;;;16.50;99.90;;;;;;5029285;28;20057;-68
2022/01/14 12:36:16;;;;;;;26.08;16.23;;;16.50;99.90;;;;;;5028604;28;20045;-68
2022/01/14 12:38:44;;;;;;;29.35;15.93;;;16.50;99.90;;;;;;5030341;28;20052;-68
2022/01/14 12:41:18;;;;;;;26.23;15.63;;;15.40;99.90;;;;;;5028923;28;20561;-68
2022/01/14 12:43:54;;;;;;;30.80;16.88;;;15.70;99.90;;;;;;5025336;28;20100;-69
2022/01/14 12:46:52;;;;;;;28.52;16.35;;;15.50;99.90;;;;;;5033187;28;20049;-69
2022/01/14 12:49:30;;;;;;;25.02;15.68;;;15.50;99.90;;;;;;5029118;28;20064;-68
2022/01/14 12:52:09;;;;;;;26.65;15.20;;;16.70;99.90;;;;;;5035831;28;20049;-68
2022/01/14 12:54:38;;;;;;;26.40;16.60;;;17.70;99.90;;;;;;5032647;28;20045;-68
2022/01/14 12:57:07;;;;;;;22.23;15.27;;;18.10;99.90;;;;;;5004954;28;20056;-68
2022/01/14 12:59:49;;;;;;;26.52;15.60;;;18.30;99.90;;;;;;5031883;28;20511;-68
2022/01/14 13:02:21;;;;;;;25.67;16.33;;;19.00;99.90;;;;;;5027227;28;20568;-68
2022/01/14 13:05:09;;;;;;;27.83;15.50;;;19.20;99.90;;;;;;5037268;28;20047;-68
2022/01/14 13:07:36;;;;;;;23.98;15.55;;;19.70;99.50;;;;;;5028975;28;20534;-68
2022/01/14 13:10:05;;;;;;;24.00;15.60;;;19.10;99.70;;;;;;5034531;28;20072;-69
2022/01/14 13:12:38;;;;;;;22.90;14.98;;;19.30;98.90;;;;;;5032390;28;20421;-68